sensor_id;sensor_type;location;lat;lon;timestamp;P1;durP1;ratioP1;P2;durP2;ratioP2
30249;SDS011;17064;47.974;13.826;2023-11-19T00:02:52;0.73;;;0.50;;
30249;SDS011;17064;47.974;13.826;2023-11-19T00:07:53;0.32;;;0.30;;
30249;SDS011;17064;47.974;13.826;2023-11-19T00:12:54;0.43;;;0.40;;
30249;SDS011;17064;47.974;13.826;2023-11-19T00:17:57;0.53;;;0.40;;
30249;SDS011;17064;47.974;13.826;2023-11-19T00:22:57;1.42;;;0.50;;
30249;SDS011;17064;47.974;13.826;2023-11-19T00:27:58;0.73;;;0.30;;
30249;SDS011;17064;47.974;13.826;2023-11-19T00:32:59;0.75;;;0.32;;
30249;SDS011;17064;47.974;13.826;2023-11-19T00:38:00;3.38;;;0.93;;
30249;SDS011;17064;47.974;13.826;2023-11-19T00:43:00;1.27;;;0.55;;
30249;SDS011;17064;47.974;13.826;2023-11-19T00:48:01;0.32;;;0.28;;
30249;SDS011;17064;47.974;13.826;2023-11-19T00:53:02;0.75;;;0.40;;
30249;SDS011;17064;47.974;13.826;2023-11-19T00:58:04;1.77;;;0.60;;
30249;SDS011;17064;47.974;13.826;2023-11-19T01:03:04;1.35;;;0.93;;
30249;SDS011;17064;47.974;13.826;2023-11-19T01:08:07;1.88;;;1.08;;
30249;SDS011;17064;47.974;13.826;2023-11-19T01:13:08;2.55;;;0.73;;
30249;SDS011;17064;47.974;13.826;2023-11-19T01:18:08;0.98;;;0.90;;
30249;SDS011;17064;47.974;13.826;2023-11-19T01:23:09;1.02;;;0.80;;
30249;SDS011;17064;47.974;13.826;2023-11-19T01:28:10;1.15;;;0.95;;
30249;SDS011;17064;47.974;13.826;2023-11-19T01:33:10;1.58;;;1.02;;
30249;SDS011;17064;47.974;13.826;2023-11-19T01:38:11;1.10;;;0.80;;
30249;SDS011;17064;47.974;13.826;2023-11-19T01:43:11;0.88;;;0.80;;
30249;SDS011;17064;47.974;13.826;2023-11-19T01:48:13;1.63;;;1.02;;
30249;SDS011;17064;47.974;13.826;2023-11-19T01:53:15;1.58;;;1.20;;
30249;SDS011;17064;47.974;13.826;2023-11-19T01:58:16;1.10;;;1.00;;
30249;SDS011;17064;47.974;13.826;2023-11-19T02:03:17;1.20;;;1.08;;
30249;SDS011;17064;47.974;13.826;2023-11-19T02:08:19;1.83;;;1.35;;
30249;SDS011;17064;47.974;13.826;2023-11-19T02:13:20;1.50;;;1.13;;
30249;SDS011;17064;47.974;13.826;2023-11-19T02:18:24;1.20;;;1.10;;
30249;SDS011;17064;47.974;13.826;2023-11-19T02:23:28;1.50;;;1.10;;
30249;SDS011;17064;47.974;13.826;2023-11-19T02:28:30;1.45;;;1.25;;
30249;SDS011;17064;47.974;13.826;2023-11-19T02:33:32;1.13;;;1.02;;
30249;SDS011;17064;47.974;13.826;2023-11-19T02:38:34;1.48;;;1.27;;
30249;SDS011;17064;47.974;13.826;2023-11-19T02:43:36;2.58;;;2.22;;
30249;SDS011;17064;47.974;13.826;2023-11-19T02:48:38;2.45;;;1.80;;
30249;SDS011;17064;47.974;13.826;2023-11-19T02:53:39;2.30;;;1.50;;
30249;SDS011;17064;47.974;13.826;2023-11-19T02:58:42;1.98;;;1.45;;
30249;SDS011;17064;47.974;13.826;2023-11-19T03:03:44;3.25;;;1.15;;
30249;SDS011;17064;47.974;13.826;2023-11-19T03:08:49;2.40;;;0.98;;
30249;SDS011;17064;47.974;13.826;2023-11-19T03:13:49;1.60;;;1.35;;
30249;SDS011;17064;47.974;13.826;2023-11-19T03:18:50;1.20;;;1.10;;
30249;SDS011;17064;47.974;13.826;2023-11-19T03:23:51;1.58;;;0.95;;
30249;SDS011;17064;47.974;13.826;2023-11-19T03:28:52;2.15;;;1.27;;
30249;SDS011;17064;47.974;13.826;2023-11-19T03:33:52;1.55;;;1.30;;
30249;SDS011;17064;47.974;13.826;2023-11-19T03:38:54;1.70;;;1.60;;
30249;SDS011;17064;47.974;13.826;2023-11-19T03:43:54;2.53;;;1.75;;
30249;SDS011;17064;47.974;13.826;2023-11-19T03:48:56;1.73;;;1.40;;
30249;SDS011;17064;47.974;13.826;2023-11-19T03:53:56;2.17;;;1.77;;
30249;SDS011;17064;47.974;13.826;2023-11-19T03:58:57;2.53;;;1.52;;
30249;SDS011;17064;47.974;13.826;2023-11-19T04:03:57;5.15;;;1.90;;
30249;SDS011;17064;47.974;13.826;2023-11-19T04:08:59;2.42;;;1.63;;
30249;SDS011;17064;47.974;13.826;2023-11-19T04:13:59;1.88;;;1.40;;
30249;SDS011;17064;47.974;13.826;2023-11-19T04:19:00;1.83;;;1.73;;
30249;SDS011;17064;47.974;13.826;2023-11-19T04:24:01;2.00;;;1.52;;
30249;SDS011;17064;47.974;13.826;2023-11-19T04:29:02;1.63;;;1.20;;
30249;SDS011;17064;47.974;13.826;2023-11-19T04:34:02;1.40;;;1.15;;
30249;SDS011;17064;47.974;13.826;2023-11-19T04:39:03;0.93;;;0.82;;
30249;SDS011;17064;47.974;13.826;2023-11-19T04:44:15;0.75;;;0.75;;
30249;SDS011;17064;47.974;13.826;2023-11-19T04:49:16;0.88;;;0.82;;
30249;SDS011;17064;47.974;13.826;2023-11-19T04:54:18;1.05;;;0.98;;
30249;SDS011;17064;47.974;13.826;2023-11-19T04:59:19;0.70;;;0.70;;
30249;SDS011;17064;47.974;13.826;2023-11-19T05:04:19;2.00;;;1.80;;
30249;SDS011;17064;47.974;13.826;2023-11-19T05:09:20;3.00;;;1.98;;
30249;SDS011;17064;47.974;13.826;2023-11-19T05:14:21;3.60;;;1.17;;
30249;SDS011;17064;47.974;13.826;2023-11-19T05:19:22;1.80;;;1.25;;
30249;SDS011;17064;47.974;13.826;2023-11-19T05:24:22;1.45;;;1.10;;
30249;SDS011;17064;47.974;13.826;2023-11-19T05:29:23;4.95;;;2.47;;
30249;SDS011;17064;47.974;13.826;2023-11-19T05:34:24;3.28;;;1.98;;
30249;SDS011;17064;47.974;13.826;2023-11-19T05:39:25;8.32;;;3.90;;
30249;SDS011;17064;47.974;13.826;2023-11-19T05:44:26;37.25;;;15.23;;
30249;SDS011;17064;47.974;13.826;2023-11-19T05:49:27;31.35;;;13.52;;
30249;SDS011;17064;47.974;13.826;2023-11-19T05:54:27;6.75;;;3.80;;
30249;SDS011;17064;47.974;13.826;2023-11-19T05:59:28;1.75;;;1.50;;
30249;SDS011;17064;47.974;13.826;2023-11-19T06:04:30;3.67;;;1.30;;
30249;SDS011;17064;47.974;13.826;2023-11-19T06:09:30;3.28;;;2.97;;
30249;SDS011;17064;47.974;13.826;2023-11-19T06:14:34;2.22;;;1.73;;
30249;SDS011;17064;47.974;13.826;2023-11-19T06:19:34;1.48;;;1.30;;
30249;SDS011;17064;47.974;13.826;2023-11-19T06:24:35;2.80;;;1.88;;
30249;SDS011;17064;47.974;13.826;2023-11-19T06:29:35;3.97;;;3.58;;
30249;SDS011;17064;47.974;13.826;2023-11-19T06:34:36;2.80;;;2.60;;
30249;SDS011;17064;47.974;13.826;2023-11-19T06:39:37;4.10;;;2.25;;
30249;SDS011;17064;47.974;13.826;2023-11-19T06:44:38;2.28;;;1.90;;
30249;SDS011;17064;47.974;13.826;2023-11-19T06:49:39;2.72;;;2.00;;
30249;SDS011;17064;47.974;13.826;2023-11-19T06:54:40;2.40;;;1.83;;
30249;SDS011;17064;47.974;13.826;2023-11-19T06:59:40;2.30;;;1.38;;
30249;SDS011;17064;47.974;13.826;2023-11-19T07:04:42;2.22;;;1.67;;
30249;SDS011;17064;47.974;13.826;2023-11-19T07:09:43;1.80;;;1.42;;
30249;SDS011;17064;47.974;13.826;2023-11-19T07:14:43;2.08;;;1.70;;
30249;SDS011;17064;47.974;13.826;2023-11-19T07:19:44;2.88;;;1.98;;
30249;SDS011;17064;47.974;13.826;2023-11-19T07:24:45;2.80;;;1.63;;
30249;SDS011;17064;47.974;13.826;2023-11-19T07:29:46;3.08;;;1.90;;
30249;SDS011;17064;47.974;13.826;2023-11-19T07:34:49;3.28;;;2.72;;
30249;SDS011;17064;47.974;13.826;2023-11-19T07:39:50;3.10;;;1.80;;
30249;SDS011;17064;47.974;13.826;2023-11-19T07:44:52;2.42;;;1.67;;
30249;SDS011;17064;47.974;13.826;2023-11-19T07:49:57;1.73;;;1.50;;
30249;SDS011;17064;47.974;13.826;2023-11-19T07:54:59;2.17;;;1.60;;
30249;SDS011;17064;47.974;13.826;2023-11-19T08:00:00;1.10;;;1.00;;
30249;SDS011;17064;47.974;13.826;2023-11-19T08:05:02;5.65;;;3.33;;
30249;SDS011;17064;47.974;13.826;2023-11-19T08:10:03;3.92;;;2.55;;
30249;SDS011;17064;47.974;13.826;2023-11-19T08:15:05;1.80;;;1.70;;
30249;SDS011;17064;47.974;13.826;2023-11-19T08:20:07;4.65;;;2.15;;
30249;SDS011;17064;47.974;13.826;2023-11-19T08:25:12;2.15;;;1.80;;
30249;SDS011;17064;47.974;13.826;2023-11-19T08:30:13;2.25;;;1.88;;
30249;SDS011;17064;47.974;13.826;2023-11-19T08:35:14;4.60;;;3.00;;
30249;SDS011;17064;47.974;13.826;2023-11-19T08:40:16;10.48;;;5.32;;
30249;SDS011;17064;47.974;13.826;2023-11-19T08:45:17;6.22;;;3.45;;
30249;SDS011;17064;47.974;13.826;2023-11-19T08:50:18;6.78;;;3.95;;
30249;SDS011;17064;47.974;13.826;2023-11-19T08:55:19;6.90;;;5.30;;
30249;SDS011;17064;47.974;13.826;2023-11-19T09:00:20;8.57;;;5.05;;
30249;SDS011;17064;47.974;13.826;2023-11-19T09:05:21;14.73;;;7.28;;
30249;SDS011;17064;47.974;13.826;2023-11-19T09:10:21;12.00;;;6.10;;
30249;SDS011;17064;47.974;13.826;2023-11-19T09:15:22;8.45;;;3.78;;
30249;SDS011;17064;47.974;13.826;2023-11-19T09:20:22;6.43;;;3.13;;
30249;SDS011;17064;47.974;13.826;2023-11-19T09:25:23;4.72;;;2.70;;
30249;SDS011;17064;47.974;13.826;2023-11-19T09:30:24;2.80;;;1.40;;
30249;SDS011;17064;47.974;13.826;2023-11-19T09:35:24;2.25;;;1.38;;
30249;SDS011;17064;47.974;13.826;2023-11-19T09:40:25;1.45;;;1.05;;
30249;SDS011;17064;47.974;13.826;2023-11-19T09:45:27;1.50;;;0.90;;
30249;SDS011;17064;47.974;13.826;2023-11-19T09:50:28;2.00;;;1.20;;
30249;SDS011;17064;47.974;13.826;2023-11-19T09:55:28;0.68;;;0.32;;
30249;SDS011;17064;47.974;13.826;2023-11-19T10:00:29;0.50;;;0.30;;
30249;SDS011;17064;47.974;13.826;2023-11-19T10:05:30;0.50;;;0.30;;
30249;SDS011;17064;47.974;13.826;2023-11-19T10:10:31;1.10;;;0.80;;
30249;SDS011;17064;47.974;13.826;2023-11-19T10:15:33;0.70;;;0.40;;
30249;SDS011;17064;47.974;13.826;2023-11-19T10:20:36;0.80;;;0.22;;
30249;SDS011;17064;47.974;13.826;2023-11-19T10:25:38;0.55;;;0.38;;
30249;SDS011;17064;47.974;13.826;2023-11-19T10:30:38;2.63;;;1.75;;
30249;SDS011;17064;47.974;13.826;2023-11-19T10:35:51;0.60;;;0.50;;
30249;SDS011;17064;47.974;13.826;2023-11-19T10:40:59;0.82;;;0.50;;
30249;SDS011;17064;47.974;13.826;2023-11-19T10:46:13;1.15;;;0.60;;
30249;SDS011;17064;47.974;13.826;2023-11-19T10:51:16;0.50;;;0.40;;
30249;SDS011;17064;47.974;13.826;2023-11-19T10:56:24;3.22;;;2.30;;
30249;SDS011;17064;47.974;13.826;2023-11-19T11:01:39;2.92;;;1.30;;
30249;SDS011;17064;47.974;13.826;2023-11-19T11:06:45;0.30;;;0.30;;
30249;SDS011;17064;47.974;13.826;2023-11-19T11:11:47;3.33;;;0.30;;
30249;SDS011;17064;47.974;13.826;2023-11-19T11:16:49;0.30;;;0.20;;
30249;SDS011;17064;47.974;13.826;2023-11-19T11:21:53;0.95;;;0.30;;
30249;SDS011;17064;47.974;13.826;2023-11-19T11:37:37;0.55;;;0.43;;
30249;SDS011;17064;47.974;13.826;2023-11-19T11:42:45;0.38;;;0.30;;
30249;SDS011;17064;47.974;13.826;2023-11-19T11:58:00;0.63;;;0.30;;
30249;SDS011;17064;47.974;13.826;2023-11-19T12:03:00;0.20;;;0.20;;
30249;SDS011;17064;47.974;13.826;2023-11-19T12:08:03;0.82;;;0.30;;
30249;SDS011;17064;47.974;13.826;2023-11-19T12:13:06;1.90;;;0.60;;
30249;SDS011;17064;47.974;13.826;2023-11-19T12:18:08;1.65;;;0.22;;
30249;SDS011;17064;47.974;13.826;2023-11-19T12:23:09;0.17;;;0.10;;
30249;SDS011;17064;47.974;13.826;2023-11-19T12:28:12;1.55;;;0.57;;
30249;SDS011;17064;47.974;13.826;2023-11-19T12:33:17;9.55;;;0.30;;
30249;SDS011;17064;47.974;13.826;2023-11-19T12:38:18;0.10;;;0.10;;
30249;SDS011;17064;47.974;13.826;2023-11-19T12:43:23;0.28;;;0.15;;
30249;SDS011;17064;47.974;13.826;2023-11-19T12:48:23;0.80;;;0.28;;
30249;SDS011;17064;47.974;13.826;2023-11-19T12:53:25;1.95;;;0.30;;
30249;SDS011;17064;47.974;13.826;2023-11-19T12:58:34;0.37;;;0.10;;
30249;SDS011;17064;47.974;13.826;2023-11-19T13:03:36;0.32;;;0.20;;
30249;SDS011;17064;47.974;13.826;2023-11-19T13:08:39;0.10;;;0.10;;
30249;SDS011;17064;47.974;13.826;2023-11-19T13:19:00;2.25;;;0.47;;
30249;SDS011;17064;47.974;13.826;2023-11-19T13:24:01;0.50;;;0.30;;
30249;SDS011;17064;47.974;13.826;2023-11-19T13:29:01;2.20;;;0.30;;
30249;SDS011;17064;47.974;13.826;2023-11-19T13:34:02;0.63;;;0.28;;
30249;SDS011;17064;47.974;13.826;2023-11-19T13:39:03;0.20;;;0.20;;
30249;SDS011;17064;47.974;13.826;2023-11-19T13:44:04;2.00;;;0.10;;
30249;SDS011;17064;47.974;13.826;2023-11-19T13:49:04;0.55;;;0.10;;
30249;SDS011;17064;47.974;13.826;2023-11-19T13:54:05;0.95;;;0.40;;
30249;SDS011;17064;47.974;13.826;2023-11-19T13:59:06;1.85;;;0.20;;
30249;SDS011;17064;47.974;13.826;2023-11-19T14:04:09;0.28;;;0.20;;
30249;SDS011;17064;47.974;13.826;2023-11-19T14:09:09;0.20;;;0.20;;
30249;SDS011;17064;47.974;13.826;2023-11-19T14:14:10;0.65;;;0.10;;
30249;SDS011;17064;47.974;13.826;2023-11-19T14:19:11;2.67;;;0.20;;
30249;SDS011;17064;47.974;13.826;2023-11-19T14:24:12;0.10;;;0.10;;
30249;SDS011;17064;47.974;13.826;2023-11-19T14:29:12;0.35;;;0.17;;
30249;SDS011;17064;47.974;13.826;2023-11-19T14:34:13;0.20;;;0.10;;
30249;SDS011;17064;47.974;13.826;2023-11-19T14:39:14;0.57;;;0.38;;
30249;SDS011;17064;47.974;13.826;2023-11-19T14:44:15;0.52;;;0.50;;
30249;SDS011;17064;47.974;13.826;2023-11-19T14:49:16;1.13;;;0.45;;
30249;SDS011;17064;47.974;13.826;2023-11-19T14:54:17;4.18;;;0.73;;
30249;SDS011;17064;47.974;13.826;2023-11-19T14:59:18;0.75;;;0.43;;
30249;SDS011;17064;47.974;13.826;2023-11-19T15:04:18;1.15;;;0.60;;
30249;SDS011;17064;47.974;13.826;2023-11-19T15:09:19;0.35;;;0.30;;
30249;SDS011;17064;47.974;13.826;2023-11-19T15:14:21;1.40;;;0.40;;
30249;SDS011;17064;47.974;13.826;2023-11-19T15:19:21;1.67;;;0.70;;
30249;SDS011;17064;47.974;13.826;2023-11-19T15:24:22;1.48;;;0.40;;
30249;SDS011;17064;47.974;13.826;2023-11-19T15:29:25;0.53;;;0.20;;
30249;SDS011;17064;47.974;13.826;2023-11-19T15:34:26;1.20;;;0.47;;
30249;SDS011;17064;47.974;13.826;2023-11-19T15:39:26;0.50;;;0.50;;
30249;SDS011;17064;47.974;13.826;2023-11-19T15:44:29;0.47;;;0.20;;
30249;SDS011;17064;47.974;13.826;2023-11-19T15:49:30;0.60;;;0.20;;
30249;SDS011;17064;47.974;13.826;2023-11-19T15:54:31;0.75;;;0.30;;
30249;SDS011;17064;47.974;13.826;2023-11-19T15:59:32;0.40;;;0.30;;
30249;SDS011;17064;47.974;13.826;2023-11-19T16:04:36;0.80;;;0.50;;
30249;SDS011;17064;47.974;13.826;2023-11-19T16:09:37;0.63;;;0.30;;
30249;SDS011;17064;47.974;13.826;2023-11-19T16:14:43;0.40;;;0.20;;
30249;SDS011;17064;47.974;13.826;2023-11-19T16:19:44;1.25;;;0.20;;
30249;SDS011;17064;47.974;13.826;2023-11-19T16:24:52;0.50;;;0.10;;
30249;SDS011;17064;47.974;13.826;2023-11-19T16:29:55;1.30;;;0.20;;
30249;SDS011;17064;47.974;13.826;2023-11-19T16:34:57;0.45;;;0.28;;
30249;SDS011;17064;47.974;13.826;2023-11-19T16:39:58;0.10;;;0.10;;
30249;SDS011;17064;47.974;13.826;2023-11-19T16:44:59;1.65;;;0.10;;
30249;SDS011;17064;47.974;13.826;2023-11-19T16:50:02;2.13;;;0.10;;
30249;SDS011;17064;47.974;13.826;2023-11-19T16:55:04;0.30;;;0.20;;
30249;SDS011;17064;47.974;13.826;2023-11-19T17:00:14;0.85;;;0.20;;
30249;SDS011;17064;47.974;13.826;2023-11-19T17:05:18;0.82;;;0.20;;
30249;SDS011;17064;47.974;13.826;2023-11-19T17:10:19;0.30;;;0.20;;
30249;SDS011;17064;47.974;13.826;2023-11-19T17:15:22;8.02;;;1.05;;
30249;SDS011;17064;47.974;13.826;2023-11-19T17:20:26;1.08;;;0.32;;
30249;SDS011;17064;47.974;13.826;2023-11-19T17:25:33;0.17;;;0.17;;
30249;SDS011;17064;47.974;13.826;2023-11-19T17:30:37;0.73;;;0.10;;
30249;SDS011;17064;47.974;13.826;2023-11-19T17:35:42;0.20;;;0.20;;
30249;SDS011;17064;47.974;13.826;2023-11-19T17:40:42;1.38;;;0.40;;
30249;SDS011;17064;47.974;13.826;2023-11-19T17:45:43;0.40;;;0.25;;
30249;SDS011;17064;47.974;13.826;2023-11-19T17:50:44;0.47;;;0.20;;
30249;SDS011;17064;47.974;13.826;2023-11-19T17:55:44;0.63;;;0.20;;
30249;SDS011;17064;47.974;13.826;2023-11-19T18:00:45;1.20;;;0.55;;
30249;SDS011;17064;47.974;13.826;2023-11-19T18:05:46;0.43;;;0.30;;
30249;SDS011;17064;47.974;13.826;2023-11-19T18:10:48;0.28;;;0.20;;
30249;SDS011;17064;47.974;13.826;2023-11-19T18:15:49;0.47;;;0.30;;
30249;SDS011;17064;47.974;13.826;2023-11-19T18:20:50;0.28;;;0.28;;
30249;SDS011;17064;47.974;13.826;2023-11-19T18:25:52;0.80;;;0.38;;
30249;SDS011;17064;47.974;13.826;2023-11-19T18:30:53;0.73;;;0.32;;
30249;SDS011;17064;47.974;13.826;2023-11-19T18:35:55;0.22;;;0.20;;
30249;SDS011;17064;47.974;13.826;2023-11-19T18:40:56;0.93;;;0.40;;
30249;SDS011;17064;47.974;13.826;2023-11-19T18:45:58;0.70;;;0.47;;
30249;SDS011;17064;47.974;13.826;2023-11-19T18:51:00;0.20;;;0.20;;
30249;SDS011;17064;47.974;13.826;2023-11-19T18:56:02;2.20;;;0.20;;
30249;SDS011;17064;47.974;13.826;2023-11-19T19:01:03;0.38;;;0.38;;
30249;SDS011;17064;47.974;13.826;2023-11-19T19:06:09;1.35;;;0.50;;
30249;SDS011;17064;47.974;13.826;2023-11-19T19:11:11;0.95;;;0.45;;
30249;SDS011;17064;47.974;13.826;2023-11-19T19:16:13;0.60;;;0.40;;
30249;SDS011;17064;47.974;13.826;2023-11-19T19:21:14;1.55;;;0.32;;
30249;SDS011;17064;47.974;13.826;2023-11-19T19:26:17;0.57;;;0.30;;
30249;SDS011;17064;47.974;13.826;2023-11-19T19:31:20;0.50;;;0.30;;
30249;SDS011;17064;47.974;13.826;2023-11-19T19:36:21;2.20;;;0.30;;
30249;SDS011;17064;47.974;13.826;2023-11-19T19:41:22;1.10;;;0.47;;
30249;SDS011;17064;47.974;13.826;2023-11-19T19:46:26;2.72;;;0.28;;
30249;SDS011;17064;47.974;13.826;2023-11-19T19:51:28;0.68;;;0.10;;
30249;SDS011;17064;47.974;13.826;2023-11-19T19:56:29;2.05;;;0.40;;
30249;SDS011;17064;47.974;13.826;2023-11-19T20:01:30;0.35;;;0.20;;
30249;SDS011;17064;47.974;13.826;2023-11-19T20:06:37;0.63;;;0.20;;
30249;SDS011;17064;47.974;13.826;2023-11-19T20:11:38;0.47;;;0.30;;
30249;SDS011;17064;47.974;13.826;2023-11-19T20:16:39;2.67;;;0.52;;
30249;SDS011;17064;47.974;13.826;2023-11-19T20:21:40;0.43;;;0.20;;
30249;SDS011;17064;47.974;13.826;2023-11-19T20:26:41;0.47;;;0.32;;
30249;SDS011;17064;47.974;13.826;2023-11-19T20:31:41;0.43;;;0.30;;
30249;SDS011;17064;47.974;13.826;2023-11-19T20:36:42;1.15;;;0.30;;
30249;SDS011;17064;47.974;13.826;2023-11-19T20:41:43;0.70;;;0.28;;
30249;SDS011;17064;47.974;13.826;2023-11-19T20:46:43;0.35;;;0.20;;
30249;SDS011;17064;47.974;13.826;2023-11-19T20:51:45;2.90;;;0.40;;
30249;SDS011;17064;47.974;13.826;2023-11-19T20:56:50;0.98;;;0.43;;
30249;SDS011;17064;47.974;13.826;2023-11-19T21:01:51;0.28;;;0.20;;
30249;SDS011;17064;47.974;13.826;2023-11-19T21:06:51;0.38;;;0.30;;
30249;SDS011;17064;47.974;13.826;2023-11-19T21:11:52;0.28;;;0.28;;
30249;SDS011;17064;47.974;13.826;2023-11-19T21:16:53;1.08;;;0.28;;
30249;SDS011;17064;47.974;13.826;2023-11-19T21:21:53;0.73;;;0.47;;
30249;SDS011;17064;47.974;13.826;2023-11-19T21:26:54;1.02;;;0.40;;
30249;SDS011;17064;47.974;13.826;2023-11-19T21:31:55;0.93;;;0.50;;
30249;SDS011;17064;47.974;13.826;2023-11-19T21:36:56;0.80;;;0.40;;
30249;SDS011;17064;47.974;13.826;2023-11-19T21:41:57;0.82;;;0.60;;
30249;SDS011;17064;47.974;13.826;2023-11-19T21:46:57;0.10;;;0.10;;
30249;SDS011;17064;47.974;13.826;2023-11-19T21:52:02;0.55;;;0.20;;
30249;SDS011;17064;47.974;13.826;2023-11-19T21:57:02;0.40;;;0.30;;
30249;SDS011;17064;47.974;13.826;2023-11-19T22:02:05;1.08;;;0.40;;
30249;SDS011;17064;47.974;13.826;2023-11-19T22:07:06;3.63;;;0.32;;
30249;SDS011;17064;47.974;13.826;2023-11-19T22:12:07;2.22;;;0.50;;
30249;SDS011;17064;47.974;13.826;2023-11-19T22:17:10;2.08;;;0.40;;
30249;SDS011;17064;47.974;13.826;2023-11-19T22:22:11;2.95;;;0.40;;
30249;SDS011;17064;47.974;13.826;2023-11-19T22:27:12;0.43;;;0.30;;
30249;SDS011;17064;47.974;13.826;2023-11-19T22:32:13;0.30;;;0.10;;
30249;SDS011;17064;47.974;13.826;2023-11-19T22:37:13;0.90;;;0.32;;
30249;SDS011;17064;47.974;13.826;2023-11-19T22:42:15;0.50;;;0.30;;
30249;SDS011;17064;47.974;13.826;2023-11-19T22:47:16;1.05;;;0.20;;
30249;SDS011;17064;47.974;13.826;2023-11-19T22:52:16;1.30;;;0.30;;
30249;SDS011;17064;47.974;13.826;2023-11-19T22:57:17;0.20;;;0.20;;
30249;SDS011;17064;47.974;13.826;2023-11-19T23:02:18;1.55;;;0.20;;
30249;SDS011;17064;47.974;13.826;2023-11-19T23:07:18;2.53;;;0.30;;
30249;SDS011;17064;47.974;13.826;2023-11-19T23:12:19;0.40;;;0.30;;
30249;SDS011;17064;47.974;13.826;2023-11-19T23:17:20;1.95;;;0.60;;
30249;SDS011;17064;47.974;13.826;2023-11-19T23:22:20;4.88;;;0.35;;
30249;SDS011;17064;47.974;13.826;2023-11-19T23:27:22;0.38;;;0.20;;
30249;SDS011;17064;47.974;13.826;2023-11-19T23:32:23;0.25;;;0.22;;
30249;SDS011;17064;47.974;13.826;2023-11-19T23:37:24;1.20;;;0.35;;
30249;SDS011;17064;47.974;13.826;2023-11-19T23:42:25;1.13;;;0.30;;
30249;SDS011;17064;47.974;13.826;2023-11-19T23:47:25;2.03;;;0.40;;
30249;SDS011;17064;47.974;13.826;2023-11-19T23:52:26;1.00;;;0.55;;
30249;SDS011;17064;47.974;13.826;2023-11-19T23:57:27;0.28;;;0.20;;
